Lantana, FL

10:15 AM EDT on July 26, 2016 (GMT -0400)
Lantana | | Change Station

Elev 16 ft 26.58 °N, 80.06 °W | Updated 4 minutes ago

Light Rain
Light Rain
80.1 °F
Feels Like 85 °F
N
0.0
Wind Variable Wind from North
Gusts 0.0 mph

Today
High -- | Low -- °F
--% Chance of Precip.
Yesterday
High -- | Low -- °F
Precip. -- in
Pressure 30.10 in
Visibility 7.0 miles
Clouds Mostly Cloudy 2400 ft
Mostly Cloudy 4300 ft
Mostly Cloudy 6000 ft
Heat Index 85 °F
Dew Point 75 °F
Humidity 85%
Rainfall 0.07 in
Snow Depth Not available.
6:42 AM 8:10 PM
Waning Gibbous, 54% visible
METAR KPBI 261353Z 13007KT 7SM -RA BKN024CB BKN043 BKN060 29/22 A3010 RMK AO2 RAB41 SLP192 CB OHD MOV NW CB DSNT S P0000 T02940222
Pressure 30.10 in
Visibility 7.0 miles
Clouds Mostly Cloudy 2400 ft
Mostly Cloudy 4300 ft
Mostly Cloudy 6000 ft
Heat Index 85 °F
Dew Point 75 °F
Humidity 85%
Rainfall 0.07 in
Snow Depth Not available.
6:42 AM 8:10 PM
Waning Gibbous, 54% visible
METAR KPBI 261353Z 13007KT 7SM -RA BKN024CB BKN043 BKN060 29/22 A3010 RMK AO2 RAB41 SLP192 CB OHD MOV NW CB DSNT S P0000 T02940222

10-Day Weather Forecast

Almanac

Astronomy

Jul. 26, 2016 Rise Set
Actual Time
Civil Twilight
Nautical Twilight
Astronomical Twilight
Moon
Length of Visible Light
Length of Day
Tomorrow will be .
, % of the Moon is Illuminated

Today's Extremes

State Highs State Lows

Community

WunderPhotos

Upload Photos

1,927,590 photos uploaded!

WunderBlog® & News

Nearby

Air Quality

  Air Quality AQ Index Pollutant
Not available.

Snow Depth

Station Depth Elevation

Earthquake Activity

City Distance Mag. Time & Date
Minimum magnitude displayed is 2.5.

Coastal Water Temperatures

Place Temperature

Stations

Nearby Weather Stations

Station Location Temp. Windchill Dew Point Humidity Wind Precip. Elev Updated Type
                   

Watches & Warnings

There are currently no watches in effect.